Time;durP1;ratioP1;P1;durP2;ratioP2;P2;SDS_P1;SDS_P2;PMS_P1;PMS_P2;Temp;Humidity;BMP_temperature;BMP_pressure;BME280_temperature;BME280_humidity;BME280_pressure;Samples;Min_cycle;Max_cycle;Signal;HPM_P1;HPM_P2
2023/06/14 00:02:51;;;;;;;5.63;3.10;;;18.60;60.80;;;;;;6269499;28;20045;-79
2023/06/14 00:05:54;;;;;;;6.75;3.47;;;18.50;61.40;;;;;;6251351;28;20488;-79
2023/06/14 00:08:56;;;;;;;5.93;3.50;;;18.40;61.70;;;;;;6251483;28;20411;-79
2023/06/14 00:11:58;;;;;;;6.28;3.75;;;18.50;61.80;;;;;;6251397;28;20057;-79
2023/06/14 00:15:01;;;;;;;6.22;3.75;;;18.50;61.80;;;;;;6262505;28;20050;-79
2023/06/14 00:18:04;;;;;;;5.97;3.63;;;18.40;62.00;;;;;;6251450;28;20138;-79
2023/06/14 00:21:08;;;;;;;6.97;3.50;;;18.20;62.20;;;;;;6251618;28;20045;-79
2023/06/14 00:24:10;;;;;;;6.50;3.50;;;18.10;62.20;;;;;;6258884;28;20045;-79
2023/06/14 00:27:12;;;;;;;6.30;3.50;;;17.90;62.60;;;;;;6251094;28;20046;-79
2023/06/14 00:30:15;;;;;;;6.65;3.42;;;17.70;62.80;;;;;;6251024;28;20054;-78
2023/06/14 00:33:16;;;;;;;6.28;3.70;;;17.80;63.30;;;;;;6250316;28;20051;-78
2023/06/14 00:36:20;;;;;;;6.03;3.55;;;17.90;63.10;;;;;;6251204;28;20045;-79
2023/06/14 00:39:21;;;;;;;6.93;3.63;;;17.90;63.30;;;;;;6250486;28;20052;-79
2023/06/14 00:42:27;;;;;;;6.70;3.58;;;17.90;63.30;;;;;;6261591;28;20388;-79
2023/06/14 00:45:31;;;;;;;5.88;3.63;;;17.90;63.50;;;;;;6261699;28;20052;-79
2023/06/14 00:48:34;;;;;;;7.22;3.70;;;17.90;63.30;;;;;;6249597;28;20053;-79
2023/06/14 00:51:39;;;;;;;6.90;3.45;;;17.80;63.40;;;;;;6250540;28;20557;-78
2023/06/14 00:54:41;;;;;;;5.70;3.40;;;17.70;63.80;;;;;;6259700;28;20055;-79
2023/06/14 00:57:43;;;;;;;6.32;3.83;;;17.60;64.40;;;;;;6247630;28;20200;-79
2023/06/14 01:00:45;;;;;;;6.82;3.70;;;17.60;64.50;;;;;;6237570;28;20046;-79
2023/06/14 01:03:47;;;;;;;6.95;3.72;;;17.60;64.40;;;;;;6253074;28;20040;-79
2023/06/14 01:07:09;;;;;;;6.18;4.03;;;17.50;64.40;;;;;;6253805;28;20407;-79
2023/06/14 01:10:26;;;;;;;6.55;3.67;;;17.30;64.70;;;;;;6255649;28;20049;-79
2023/06/14 01:13:33;;;;;;;5.57;3.50;;;17.00;65.50;;;;;;6249401;28;20072;-79
2023/06/14 01:16:39;;;;;;;5.75;3.45;;;17.00;65.80;;;;;;6250115;28;20495;-78
2023/06/14 01:19:42;;;;;;;11.88;4.28;;;16.90;65.90;;;;;;6250180;28;20095;-78
2023/06/14 01:22:52;;;;;;;7.95;3.75;;;16.90;66.00;;;;;;6249204;28;20697;-78
2023/06/14 01:25:55;;;;;;;7.45;4.00;;;16.70;66.40;;;;;;6257687;28;20061;-78
2023/06/14 01:28:58;;;;;;;6.72;3.83;;;16.80;66.70;;;;;;6249382;28;20049;-78
2023/06/14 01:32:00;;;;;;;7.15;4.25;;;16.90;66.30;;;;;;6260964;28;20052;-78
2023/06/14 01:35:03;;;;;;;7.65;4.00;;;17.00;66.20;;;;;;6273046;28;20416;-79
2023/06/14 01:38:08;;;;;;;7.03;3.63;;;17.10;66.40;;;;;;6268220;28;20045;-79
2023/06/14 01:41:11;;;;;;;4.93;3.47;;;17.10;66.00;;;;;;6249388;28;20046;-78
2023/06/14 01:44:15;;;;;;;7.30;3.97;;;17.00;66.00;;;;;;6248331;28;20045;-78
2023/06/14 01:47:17;;;;;;;5.93;3.78;;;16.90;66.20;;;;;;6249347;28;20100;-79
2023/06/14 01:50:21;;;;;;;5.72;3.70;;;16.70;66.70;;;;;;6248986;28;20049;-78
2023/06/14 01:53:24;;;;;;;5.43;3.63;;;16.40;67.20;;;;;;6248573;28;20052;-78
2023/06/14 01:56:26;;;;;;;8.15;3.90;;;16.40;67.60;;;;;;6248720;28;20384;-78
2023/06/14 01:59:28;;;;;;;6.57;4.18;;;16.50;67.80;;;;;;6260431;28;20120;-79
2023/06/14 02:02:30;;;;;;;9.18;4.00;;;16.60;67.70;;;;;;6264073;28;20060;-78
2023/06/14 02:05:32;;;;;;;7.88;4.15;;;16.60;67.50;;;;;;6248324;28;20392;-78
2023/06/14 02:08:35;;;;;;;10.35;4.00;;;16.40;67.60;;;;;;6248701;28;20052;-78
2023/06/14 02:11:37;;;;;;;8.23;4.47;;;16.20;68.20;;;;;;6248716;28;20054;-78
2023/06/14 02:14:39;;;;;;;6.45;3.63;;;16.40;68.60;;;;;;6248170;28;20049;-79
2023/06/14 02:17:41;;;;;;;5.80;4.03;;;16.50;68.40;;;;;;6248837;28;20049;-79
2023/06/14 02:20:43;;;;;;;6.55;4.18;;;16.40;68.20;;;;;;6250224;28;20108;-77
2023/06/14 02:23:46;;;;;;;8.38;4.05;;;16.40;69.40;;;;;;6266270;28;20041;-79
2023/06/14 02:26:48;;;;;;;6.80;4.20;;;16.50;68.10;;;;;;6248568;28;20080;-79
2023/06/14 02:29:50;;;;;;;6.45;3.75;;;16.50;68.50;;;;;;6248474;28;20046;-78
2023/06/14 02:32:53;;;;;;;7.07;3.70;;;16.50;68.60;;;;;;6248297;28;20491;-78
2023/06/14 02:35:56;;;;;;;6.80;4.18;;;16.40;68.30;;;;;;6247489;28;20060;-78
2023/06/14 02:38:59;;;;;;;7.43;4.10;;;16.30;68.80;;;;;;6248106;28;20049;-78
2023/06/14 02:42:01;;;;;;;5.93;4.07;;;16.20;69.10;;;;;;6247896;28;20415;-79
2023/06/14 02:45:04;;;;;;;7.47;4.03;;;16.20;69.30;;;;;;6256811;28;20056;-78
2023/06/14 02:48:06;;;;;;;7.10;3.92;;;16.20;69.60;;;;;;6248017;28;20056;-79
2023/06/14 02:51:09;;;;;;;6.72;4.10;;;16.30;69.60;;;;;;6247839;28;20403;-78
2023/06/14 02:54:12;;;;;;;6.43;3.97;;;16.30;69.30;;;;;;6247045;28;20172;-78
2023/06/14 02:57:14;;;;;;;6.07;3.63;;;16.30;69.20;;;;;;6248028;28;20049;-78
2023/06/14 03:00:17;;;;;;;7.63;3.95;;;16.20;69.30;;;;;;6226456;28;20054;-78
2023/06/14 03:03:19;;;;;;;6.47;4.27;;;16.10;69.60;;;;;;6237347;28;20499;-76
2023/06/14 03:06:24;;;;;;;7.78;3.80;;;16.10;69.80;;;;;;6272422;28;20045;-78
2023/06/14 03:09:27;;;;;;;7.32;4.28;;;15.90;69.50;;;;;;6257353;28;20045;-78
2023/06/14 03:12:31;;;;;;;6.93;4.25;;;15.60;70.00;;;;;;6247226;28;20054;-78
2023/06/14 03:15:33;;;;;;;7.28;3.88;;;15.30;70.60;;;;;;6246820;28;20073;-78
2023/06/14 03:18:36;;;;;;;9.63;3.97;;;15.20;71.60;;;;;;6247009;28;20053;-79
2023/06/14 03:21:38;;;;;;;7.35;4.13;;;15.10;72.00;;;;;;6247546;28;20245;-79
2023/06/14 03:24:42;;;;;;;7.95;4.07;;;15.20;72.30;;;;;;6248732;28;20069;-77
2023/06/14 03:27:44;;;;;;;6.07;4.47;;;15.20;72.40;;;;;;6247504;28;20045;-77
2023/06/14 03:30:46;;;;;;;6.13;4.22;;;15.10;72.70;;;;;;6247102;28;20498;-78
2023/06/14 03:33:48;;;;;;;6.63;4.28;;;15.10;72.90;;;;;;6261154;28;20041;-78
2023/06/14 03:36:50;;;;;;;6.13;4.10;;;15.00;72.70;;;;;;6250178;28;20046;-78
2023/06/14 03:39:54;;;;;;;8.32;4.00;;;15.00;73.20;;;;;;6247179;28;20041;-78
2023/06/14 03:42:56;;;;;;;8.77;4.38;;;15.00;73.20;;;;;;6247222;28;20058;-78
2023/06/14 03:45:58;;;;;;;6.30;3.97;;;15.10;72.70;;;;;;6246762;28;20053;-78
2023/06/14 03:49:00;;;;;;;5.50;4.00;;;15.10;72.70;;;;;;6247323;28;20049;-78
2023/06/14 03:52:02;;;;;;;6.15;3.95;;;15.00;73.20;;;;;;6247449;28;20088;-78
2023/06/14 03:55:07;;;;;;;6.15;4.18;;;15.10;73.00;;;;;;6249805;28;20049;-78
2023/06/14 03:58:10;;;;;;;8.10;4.00;;;15.00;73.10;;;;;;6261435;28;20048;-78
2023/06/14 04:01:12;;;;;;;6.40;4.40;;;15.00;73.40;;;;;;6264003;28;20199;-79
2023/06/14 04:04:16;;;;;;;7.68;4.15;;;15.00;73.40;;;;;;6246204;28;20515;-78
2023/06/14 04:07:19;;;;;;;6.38;4.45;;;14.80;73.20;;;;;;6245870;28;20127;-78
2023/06/14 04:10:22;;;;;;;7.05;4.43;;;14.70;73.70;;;;;;6247117;28;20056;-79
2023/06/14 04:13:24;;;;;;;8.18;4.50;;;14.70;73.80;;;;;;6246294;28;20049;-78
2023/06/14 04:16:26;;;;;;;6.93;4.30;;;14.60;74.20;;;;;;6247091;28;20057;-78
2023/06/14 04:19:28;;;;;;;7.10;4.50;;;14.60;75.00;;;;;;6257738;28;20050;-78
2023/06/14 04:22:31;;;;;;;7.63;4.53;;;14.70;75.20;;;;;;6250811;28;20484;-78
2023/06/14 04:25:34;;;;;;;8.93;4.72;;;14.90;75.10;;;;;;6262655;28;20053;-79
2023/06/14 04:28:40;;;;;;;6.47;4.25;;;15.00;74.90;;;;;;6271259;28;20514;-79
2023/06/14 04:31:42;;;;;;;8.50;4.50;;;15.00;74.70;;;;;;6226410;28;20407;-80
2023/06/14 04:34:44;;;;;;;8.27;4.35;;;15.10;74.30;;;;;;6233022;28;20044;-79
2023/06/14 04:37:46;;;;;;;8.30;4.20;;;15.00;75.00;;;;;;6250797;28;20045;-79
2023/06/14 04:40:52;;;;;;;6.68;4.40;;;15.10;75.10;;;;;;6250875;28;20056;-79
2023/06/14 04:43:54;;;;;;;8.57;4.40;;;15.10;75.30;;;;;;6250615;28;20067;-78
2023/06/14 04:46:58;;;;;;;6.15;4.32;;;15.10;75.50;;;;;;6250737;28;20503;-79
2023/06/14 04:50:00;;;;;;;7.55;4.53;;;15.10;75.30;;;;;;6250359;28;20057;-79
2023/06/14 04:53:02;;;;;;;7.78;4.47;;;15.20;74.30;;;;;;6250328;28;20061;-79
2023/06/14 04:56:07;;;;;;;7.35;4.15;;;15.30;73.60;;;;;;6250485;28;20171;-78
2023/06/14 04:59:09;;;;;;;6.20;3.95;;;15.40;74.40;;;;;;6250614;28;20052;-78
2023/06/14 05:02:11;;;;;;;8.57;4.63;;;15.50;74.60;;;;;;6233583;28;20057;-78
2023/06/14 05:05:15;;;;;;;7.40;4.40;;;15.60;74.50;;;;;;6225895;28;20042;-78
2023/06/14 05:08:17;;;;;;;7.85;4.22;;;15.50;74.70;;;;;;6225703;28;20046;-78
2023/06/14 05:11:20;;;;;;;6.57;4.32;;;15.40;75.50;;;;;;6242318;28;20045;-78
2023/06/14 05:14:22;;;;;;;7.15;4.20;;;15.30;76.30;;;;;;6249630;28;20045;-78
2023/06/14 05:17:24;;;;;;;6.95;4.30;;;15.30;76.10;;;;;;6249985;28;20045;-79
2023/06/14 05:20:26;;;;;;;6.13;4.25;;;15.40;76.30;;;;;;6249922;28;20042;-74
2023/06/14 05:23:28;;;;;;;7.70;4.70;;;15.40;75.40;;;;;;6249940;28;20045;-73
2023/06/14 05:26:31;;;;;;;6.85;4.50;;;15.30;75.10;;;;;;6249381;28;20052;-74
2023/06/14 05:29:33;;;;;;;8.52;4.78;;;15.30;76.10;;;;;;6249811;28;20475;-73
2023/06/14 05:32:35;;;;;;;8.23;5.00;;;15.40;76.40;;;;;;6248953;28;20049;-73
2023/06/14 05:35:37;;;;;;;7.18;4.97;;;15.50;76.70;;;;;;6249723;28;20049;-72
2023/06/14 05:38:39;;;;;;;10.00;4.90;;;15.60;75.90;;;;;;6249428;28;20045;-73
2023/06/14 05:41:42;;;;;;;6.90;4.78;;;15.60;76.10;;;;;;6249141;28;20136;-72
2023/06/14 05:44:44;;;;;;;7.63;4.60;;;15.40;75.30;;;;;;6249462;28;20045;-72
2023/06/14 05:47:46;;;;;;;7.82;5.00;;;15.30;76.90;;;;;;6249236;28;20057;-73
2023/06/14 05:50:48;;;;;;;7.53;4.57;;;15.40;74.50;;;;;;6249300;28;20056;-73
2023/06/14 05:53:50;;;;;;;8.23;5.07;;;15.50;74.60;;;;;;6249190;28;20406;-72
2023/06/14 05:56:54;;;;;;;7.18;4.82;;;15.60;74.90;;;;;;6248972;28;20042;-72
2023/06/14 05:59:56;;;;;;;8.30;5.55;;;15.70;75.70;;;;;;6248554;28;20438;-73
2023/06/14 06:02:58;;;;;;;10.57;5.03;;;15.70;75.10;;;;;;6249033;28;20053;-72
2023/06/14 06:06:00;;;;;;;10.27;5.15;;;15.80;75.80;;;;;;6248902;28;20042;-72
2023/06/14 06:09:02;;;;;;;7.55;5.10;;;16.10;74.90;;;;;;6248566;28;20049;-72
2023/06/14 06:12:07;;;;;;;9.40;5.03;;;16.40;74.10;;;;;;6248378;28;20411;-71
2023/06/14 06:15:11;;;;;;;9.20;5.25;;;16.50;72.60;;;;;;6248838;28;20041;-72
2023/06/14 06:18:13;;;;;;;9.25;5.43;;;16.70;71.20;;;;;;6248575;28;20183;-74
2023/06/14 06:21:15;;;;;;;8.65;5.60;;;16.80;70.60;;;;;;6248399;28;20049;-72
2023/06/14 06:24:17;;;;;;;7.60;4.93;;;16.90;69.00;;;;;;6248217;28;20050;-73
2023/06/14 06:27:20;;;;;;;10.25;4.95;;;17.00;69.40;;;;;;6248256;28;20049;-73
2023/06/14 06:30:22;;;;;;;12.45;5.70;;;17.00;68.90;;;;;;6248471;28;20053;-73
2023/06/14 06:33:24;;;;;;;10.73;5.10;;;17.10;68.70;;;;;;6248095;28;20050;-73
2023/06/14 06:36:26;;;;;;;11.18;5.57;;;17.20;69.20;;;;;;6248383;28;20094;-73
2023/06/14 06:39:28;;;;;;;8.35;5.28;;;17.30;68.90;;;;;;6247570;28;20692;-73
2023/06/14 06:42:31;;;;;;;11.27;5.50;;;17.40;68.80;;;;;;6247459;28;20055;-73
2023/06/14 06:45:33;;;;;;;10.20;5.45;;;17.50;69.30;;;;;;6248153;28;20041;-73
2023/06/14 06:48:35;;;;;;;12.20;5.60;;;17.60;69.00;;;;;;6248157;28;20042;-73
2023/06/14 06:51:37;;;;;;;12.60;5.28;;;17.60;68.20;;;;;;6247580;28;20041;-73
2023/06/14 06:54:39;;;;;;;9.05;5.25;;;17.70;68.60;;;;;;6248297;28;20192;-73
2023/06/14 06:57:42;;;;;;;8.55;4.97;;;17.80;68.20;;;;;;6248096;28;20045;-73
2023/06/14 07:00:44;;;;;;;8.98;5.30;;;17.80;68.90;;;;;;6244280;28;20127;-73
2023/06/14 07:03:46;;;;;;;8.68;5.45;;;18.00;68.30;;;;;;6223368;28;20046;-73
2023/06/14 07:06:48;;;;;;;9.07;4.80;;;18.00;67.80;;;;;;6247587;28;20052;-73
2023/06/14 07:09:50;;;;;;;7.60;4.95;;;18.10;68.00;;;;;;6247617;28;20053;-73
2023/06/14 07:12:53;;;;;;;11.75;5.28;;;18.20;68.10;;;;;;6247523;28;20517;-73
2023/06/14 07:15:56;;;;;;;10.70;4.97;;;18.20;67.40;;;;;;6247664;28;20046;-73
2023/06/14 07:18:58;;;;;;;8.83;5.20;;;18.30;67.70;;;;;;6247287;28;20129;-73
2023/06/14 07:22:00;;;;;;;8.73;4.80;;;18.30;67.80;;;;;;6247548;28;20053;-73
2023/06/14 07:25:02;;;;;;;8.60;4.70;;;18.40;67.50;;;;;;6247446;28;20056;-73
2023/06/14 07:28:07;;;;;;;12.23;5.90;;;18.50;67.30;;;;;;6247672;28;20124;-73
2023/06/14 07:31:08;;;;;;;7.65;5.05;;;18.50;66.10;;;;;;6247199;28;20064;-73
2023/06/14 07:34:10;;;;;;;10.23;4.70;;;18.60;66.60;;;;;;6247233;28;20041;-73
2023/06/14 07:37:12;;;;;;;9.45;4.82;;;18.70;67.20;;;;;;6247402;28;20056;-73
2023/06/14 07:40:14;;;;;;;7.93;5.03;;;18.70;66.90;;;;;;6247224;28;20049;-73
2023/06/14 07:43:17;;;;;;;6.65;4.57;;;18.80;67.30;;;;;;6247254;28;20069;-73
2023/06/14 07:46:19;;;;;;;14.55;5.88;;;18.90;65.70;;;;;;6247141;28;20045;-72
2023/06/14 07:49:21;;;;;;;15.80;5.30;;;18.90;66.10;;;;;;6247429;28;20042;-73
2023/06/14 07:52:23;;;;;;;9.90;5.05;;;19.00;65.40;;;;;;6246991;28;20045;-73
2023/06/14 07:55:25;;;;;;;9.30;4.65;;;19.00;65.40;;;;;;6250344;28;20046;-74
2023/06/14 07:58:28;;;;;;;8.02;4.72;;;19.00;65.00;;;;;;6248935;28;20455;-73
2023/06/14 08:01:30;;;;;;;8.63;4.97;;;19.10;65.20;;;;;;6227231;28;20050;-73
2023/06/14 08:04:32;;;;;;;9.25;4.68;;;19.10;64.10;;;;;;6231928;28;20049;-73
2023/06/14 08:07:34;;;;;;;9.38;5.32;;;19.20;64.80;;;;;;6250577;28;20050;-73
2023/06/14 08:10:36;;;;;;;8.82;4.60;;;19.40;64.80;;;;;;6251079;28;20515;-73
2023/06/14 08:13:39;;;;;;;8.82;4.35;;;19.50;64.70;;;;;;6250728;28;20052;-73
2023/06/14 08:16:41;;;;;;;7.43;4.00;;;19.50;64.40;;;;;;6251266;28;20088;-73
2023/06/14 08:19:43;;;;;;;8.73;4.15;;;19.60;64.10;;;;;;6251325;28;20045;-72
2023/06/14 08:22:47;;;;;;;7.28;4.75;;;19.70;64.00;;;;;;6251283;28;20503;-78
2023/06/14 08:25:48;;;;;;;7.53;4.63;;;19.70;63.10;;;;;;6251173;28;20045;-78
2023/06/14 08:28:52;;;;;;;7.32;3.95;;;19.70;62.80;;;;;;6251000;28;20069;-77
2023/06/14 08:31:53;;;;;;;7.50;4.45;;;19.70;63.00;;;;;;6250970;28;20053;-77
2023/06/14 08:34:55;;;;;;;9.52;4.10;;;19.80;62.40;;;;;;6251189;28;20053;-77
2023/06/14 08:37:57;;;;;;;7.20;4.07;;;19.90;62.70;;;;;;6250605;28;20049;-77
2023/06/14 08:41:00;;;;;;;6.47;3.50;;;19.90;61.10;;;;;;6250813;28;20049;-77
2023/06/14 08:44:04;;;;;;;6.45;3.50;;;20.10;59.90;;;;;;6250675;28;20060;-78
2023/06/14 08:47:08;;;;;;;6.82;3.70;;;20.20;61.00;;;;;;6250761;28;20056;-78
2023/06/14 08:50:11;;;;;;;11.18;3.70;;;20.30;59.80;;;;;;6252141;28;20480;-77
2023/06/14 08:53:20;;;;;;;7.20;3.97;;;20.50;59.40;;;;;;6249845;28;20471;-77
2023/06/14 08:56:26;;;;;;;5.70;3.50;;;20.50;59.40;;;;;;6240328;28;20053;-77
2023/06/14 08:59:31;;;;;;;8.55;3.85;;;20.70;59.40;;;;;;6250130;28;20128;-77
2023/06/14 09:02:35;;;;;;;6.30;3.75;;;20.70;59.40;;;;;;6240005;28;20135;-77
2023/06/14 09:05:37;;;;;;;7.35;4.10;;;20.70;59.10;;;;;;6249614;28;20493;-77
2023/06/14 09:08:40;;;;;;;8.57;3.90;;;20.70;59.30;;;;;;6250421;28;20045;-78
2023/06/14 09:11:43;;;;;;;9.07;3.70;;;20.80;59.20;;;;;;6250196;28;20041;-77
2023/06/14 09:14:46;;;;;;;7.05;3.53;;;20.80;59.30;;;;;;6250020;28;20403;-76
2023/06/14 09:17:49;;;;;;;7.28;4.10;;;21.00;59.80;;;;;;6250033;28;20044;-76
2023/06/14 09:20:51;;;;;;;8.10;4.10;;;21.10;59.50;;;;;;6250066;28;20293;-78
2023/06/14 09:23:53;;;;;;;7.30;3.85;;;21.20;59.60;;;;;;6249970;28;20045;-76
2023/06/14 09:26:55;;;;;;;8.10;3.78;;;21.20;58.40;;;;;;6250050;28;20062;-78
2023/06/14 09:29:58;;;;;;;7.07;3.70;;;21.20;57.90;;;;;;6249730;28;20518;-78
2023/06/14 09:33:00;;;;;;;6.60;3.90;;;21.20;57.60;;;;;;6249471;28;20404;-77
2023/06/14 09:36:02;;;;;;;8.48;3.97;;;21.30;58.20;;;;;;6250686;28;20054;-77
2023/06/14 09:39:06;;;;;;;6.93;3.55;;;21.30;56.80;;;;;;6249124;28;20046;-78
2023/06/14 09:42:19;;;;;;;6.85;3.55;;;21.30;56.30;;;;;;6251970;28;20057;-77
2023/06/14 09:45:22;;;;;;;;;;;21.40;56.70;;;;;;6261532;28;20507;-79
2023/06/14 09:48:24;;;;;;;8.35;4.05;;;21.50;55.70;;;;;;6249413;28;19921;-79
2023/06/14 09:51:27;;;;;;;7.22;3.78;;;21.50;54.90;;;;;;6249189;28;20061;-81
2023/06/14 09:54:31;;;;;;;5.57;3.55;;;21.50;55.60;;;;;;6249303;28;20053;-82
2023/06/14 09:57:34;;;;;;;6.63;3.92;;;21.50;54.90;;;;;;6248935;28;20503;-80
2023/06/14 10:00:40;;;;;;;6.28;3.53;;;21.60;54.30;;;;;;6249038;28;20124;-80
2023/06/14 10:03:45;;;;;;;8.35;3.80;;;21.70;54.60;;;;;;6248787;28;20053;-80
2023/06/14 10:06:47;;;;;;;9.20;3.63;;;21.80;55.80;;;;;;6249188;28;20046;-81
2023/06/14 10:09:53;;;;;;;11.20;3.83;;;21.80;55.40;;;;;;6248782;28;20045;-81
2023/06/14 10:12:55;;;;;;;6.75;3.58;;;21.90;54.40;;;;;;6248818;28;20128;-79
2023/06/14 10:16:12;;;;;;;5.40;3.30;;;22.00;52.70;;;;;;6267615;28;20053;-80
2023/06/14 10:19:22;;;;;;;6.40;3.65;;;22.00;51.90;;;;;;6248756;28;20056;-80
2023/06/14 10:22:32;;;;;;;6.53;3.25;;;22.10;52.60;;;;;;6248451;28;20045;-79
2023/06/14 10:25:34;;;;;;;5.80;3.58;;;22.20;52.40;;;;;;6248503;28;20056;-79
2023/06/14 10:28:38;;;;;;;7.45;3.50;;;22.30;52.10;;;;;;6246550;28;20052;-80
2023/06/14 10:31:46;;;;;;;6.13;4.10;;;22.50;50.70;;;;;;6247925;28;20064;-80
2023/06/14 10:34:55;;;;;;;6.85;3.38;;;22.60;52.10;;;;;;6247909;28;20049;-80
2023/06/14 10:38:08;;;;;;;6.55;3.60;;;22.60;52.20;;;;;;6248221;28;20049;-79
2023/06/14 10:41:11;;;;;;;6.00;3.47;;;22.60;52.60;;;;;;6247648;28;20072;-80
2023/06/14 10:44:42;;;;;;;6.43;3.67;;;22.50;53.50;;;;;;6247662;28;20054;-80
2023/06/14 10:47:52;;;;;;;8.02;4.05;;;22.50;53.50;;;;;;6247632;28;20057;-80
2023/06/14 10:51:02;;;;;;;6.22;4.07;;;22.50;54.00;;;;;;6247847;28;20136;-80
2023/06/14 10:54:04;;;;;;;6.82;3.67;;;22.40;53.50;;;;;;6247906;28;20049;-81
2023/06/14 10:57:08;;;;;;;10.50;3.95;;;22.60;54.10;;;;;;6247903;28;20514;-81
2023/06/14 11:00:16;;;;;;;7.70;3.60;;;22.70;53.30;;;;;;6248876;28;20053;-81
2023/06/14 11:03:52;;;;;;;7.18;3.80;;;22.80;53.70;;;;;;6250216;28;20056;-81
2023/06/14 11:07:22;;;;;;;6.70;4.30;;;22.90;53.00;;;;;;6248037;28;20041;-81
2023/06/14 11:10:37;;;;;;;6.57;3.88;;;23.00;51.70;;;;;;6246996;28;20041;-81
2023/06/14 11:13:40;;;;;;;6.32;3.58;;;23.20;52.20;;;;;;6247028;28;20049;-81
2023/06/14 11:16:42;;;;;;;8.50;3.75;;;23.20;52.10;;;;;;6247700;28;20046;-81
2023/06/14 11:19:45;;;;;;;5.55;3.75;;;23.20;50.40;;;;;;6247128;28;20045;-82
2023/06/14 11:22:48;;;;;;;;;;;23.30;51.20;;;;;;6247349;28;20049;-82
2023/06/14 11:25:51;;;;;;;8.73;3.75;;;23.40;51.00;;;;;;6246884;28;19921;-80
2023/06/14 11:28:57;;;;;;;5.95;3.85;;;23.50;51.50;;;;;;6247428;28;20385;-81
2023/06/14 11:31:59;;;;;;;6.22;3.70;;;23.60;51.20;;;;;;6251997;28;20098;-80
2023/06/14 11:35:04;;;;;;;6.20;3.88;;;23.70;51.20;;;;;;6251189;28;20049;-75
2023/06/14 11:38:06;;;;;;;7.88;3.97;;;23.50;51.00;;;;;;6251745;28;20111;-75
2023/06/14 11:41:08;;;;;;;8.88;4.15;;;23.50;51.10;;;;;;6251788;28;20158;-76
2023/06/14 11:44:11;;;;;;;7.53;3.60;;;23.50;51.00;;;;;;6251346;28;20049;-75
2023/06/14 11:47:13;;;;;;;9.77;4.10;;;23.50;51.00;;;;;;6251370;28;20189;-75
2023/06/14 11:50:16;;;;;;;8.80;4.07;;;23.70;51.50;;;;;;6251361;28;20045;-76
2023/06/14 11:53:19;;;;;;;5.20;3.50;;;23.90;50.90;;;;;;6251068;28;20088;-75
2023/06/14 11:56:20;;;;;;;5.80;3.80;;;24.10;50.30;;;;;;6251340;28;20042;-76
2023/06/14 11:59:22;;;;;;;7.35;4.25;;;24.30;50.10;;;;;;6251340;28;20042;-76
2023/06/14 12:02:25;;;;;;;7.97;4.15;;;24.30;49.80;;;;;;6250858;28;20049;-75
2023/06/14 12:05:28;;;;;;;7.28;4.00;;;24.30;50.20;;;;;;6251365;28;20042;-80
2023/06/14 12:08:38;;;;;;;12.05;4.05;;;24.20;48.90;;;;;;6250748;28;20048;-82
2023/06/14 12:11:40;;;;;;;6.78;3.88;;;24.10;47.90;;;;;;6251130;28;20557;-83
2023/06/14 12:14:43;;;;;;;9.15;4.40;;;24.20;48.80;;;;;;6251089;28;20099;-82
2023/06/14 12:17:45;;;;;;;8.63;4.20;;;24.20;48.30;;;;;;6251898;28;20048;-82
2023/06/14 12:20:51;;;;;;;5.67;3.90;;;24.00;48.50;;;;;;6252239;28;20038;-82
2023/06/14 12:23:54;;;;;;;8.00;4.00;;;24.00;48.70;;;;;;6257332;28;20061;-82
2023/06/14 12:26:58;;;;;;;8.13;4.53;;;24.10;48.80;;;;;;6262361;28;20053;-81
2023/06/14 12:30:02;;;;;;;7.18;4.07;;;24.50;50.40;;;;;;6251098;28;20049;-80
2023/06/14 12:33:05;;;;;;;6.15;4.10;;;24.80;49.30;;;;;;6249450;28;20480;-77
2023/06/14 12:36:09;;;;;;;;;;;24.90;48.70;;;;;;6251242;28;20052;-77
2023/06/14 12:39:11;;;;;;;6.25;3.60;;;25.10;47.70;;;;;;6250661;28;19940;-77
2023/06/14 12:42:14;;;;;;;8.60;4.15;;;25.00;47.60;;;;;;6248516;28;20045;-77
2023/06/14 12:45:16;;;;;;;5.53;3.50;;;24.80;47.00;;;;;;6261532;28;20057;-77
2023/06/14 12:48:18;;;;;;;9.23;4.05;;;24.60;46.70;;;;;;6250498;28;20308;-77
2023/06/14 12:51:22;;;;;;;7.35;3.80;;;24.60;47.50;;;;;;6250595;28;20041;-77
2023/06/14 12:54:25;;;;;;;6.07;3.90;;;24.70;47.30;;;;;;6250587;28;20053;-77
2023/06/14 12:57:27;;;;;;;7.75;3.67;;;24.80;47.70;;;;;;6250745;28;20053;-77
2023/06/14 13:00:30;;;;;;;8.27;3.90;;;25.10;48.60;;;;;;6250384;28;20050;-77
2023/06/14 13:03:33;;;;;;;6.10;3.80;;;25.20;48.10;;;;;;6250281;28;20483;-77
2023/06/14 13:06:36;;;;;;;;;;;25.20;48.50;;;;;;6250526;28;20045;-78
2023/06/14 13:09:38;;;;;;;4.75;3.40;;;25.30;48.70;;;;;;6250760;28;19932;-77
2023/06/14 13:12:39;;;;;;;6.50;3.67;;;25.50;48.30;;;;;;6249978;28;20052;-77
2023/06/14 13:15:41;;;;;;;8.60;3.85;;;25.70;48.40;;;;;;6249892;28;20484;-78
2023/06/14 13:18:43;;;;;;;7.15;4.07;;;25.70;48.00;;;;;;6249839;28;20491;-78
2023/06/14 13:21:46;;;;;;;6.70;3.53;;;25.80;47.60;;;;;;6247964;28;20046;-78
2023/06/14 13:24:48;;;;;;;;;;;25.60;46.90;;;;;;6249516;28;20515;-77
2023/06/14 13:27:50;;;;;;;8.43;3.73;;;25.30;47.40;;;;;;6249384;28;19921;-78
2023/06/14 13:30:52;;;;;;;7.13;3.90;;;25.20;48.10;;;;;;6249308;28;20041;-77
2023/06/14 13:33:53;;;;;;;6.50;3.45;;;25.20;47.10;;;;;;6249054;28;20045;-77
2023/06/14 13:36:58;;;;;;;7.47;4.10;;;25.10;46.10;;;;;;6248931;28;20053;-77
2023/06/14 13:40:00;;;;;;;4.82;3.28;;;25.30;47.60;;;;;;6249122;28;20060;-78
2023/06/14 13:43:02;;;;;;;5.85;3.35;;;25.60;46.70;;;;;;6248890;28;20059;-78
2023/06/14 13:46:04;;;;;;;7.10;3.95;;;25.70;45.40;;;;;;6248802;28;20045;-77
2023/06/14 13:49:06;;;;;;;5.72;3.28;;;25.60;45.60;;;;;;6248759;28;20045;-77
2023/06/14 13:52:09;;;;;;;6.90;3.70;;;25.30;46.10;;;;;;6248394;28;20041;-77
2023/06/14 13:55:11;;;;;;;6.15;3.60;;;25.10;46.80;;;;;;6248626;28;20056;-78
2023/06/14 13:58:14;;;;;;;6.35;3.60;;;25.00;47.30;;;;;;6248535;28;20049;-78
2023/06/14 14:01:17;;;;;;;;;;;25.00;47.70;;;;;;6259286;28;20606;-76
2023/06/14 14:04:19;;;;;;;5.93;3.25;;;25.20;47.20;;;;;;6248559;28;20390;-78
2023/06/14 14:07:23;;;;;;;10.38;3.97;;;25.30;47.80;;;;;;6269692;28;20450;-77
2023/06/14 14:10:26;;;;;;;5.90;3.70;;;25.40;46.90;;;;;;6272238;28;20044;-77
2023/06/14 14:13:27;;;;;;;8.07;4.00;;;25.00;46.90;;;;;;6257716;28;20045;-77
2023/06/14 14:16:31;;;;;;;6.88;3.85;;;25.10;47.00;;;;;;6267223;28;20314;-78
2023/06/14 14:19:33;;;;;;;7.10;3.60;;;25.30;46.80;;;;;;6270881;28;20068;-80
2023/06/14 14:22:36;;;;;;;8.05;3.63;;;25.50;47.30;;;;;;6251273;28;20052;-78
2023/06/14 14:25:37;;;;;;;;;;;25.80;46.10;;;;;;6247995;28;20045;-81
2023/06/14 14:28:40;;;;;;;7.23;4.20;;;26.00;46.70;;;;;;6248100;28;19933;-80
2023/06/14 14:31:41;;;;;;;6.50;3.35;;;26.10;46.90;;;;;;6248376;28;20041;-83
2023/06/14 14:34:43;;;;;;;6.53;3.67;;;26.30;47.30;;;;;;6247844;28;20068;-82
2023/06/14 14:37:46;;;;;;;6.07;3.60;;;26.40;46.90;;;;;;6247980;28;20048;-81
2023/06/14 14:40:48;;;;;;;7.15;3.88;;;26.50;46.60;;;;;;6244718;28;20178;-81
2023/06/14 14:43:50;;;;;;;5.63;3.80;;;26.30;45.40;;;;;;6247462;28;20530;-80
2023/06/14 14:46:52;;;;;;;5.22;3.72;;;26.40;45.90;;;;;;6247680;28;20049;-80
2023/06/14 14:49:54;;;;;;;7.30;4.00;;;26.40;45.40;;;;;;6246730;28;20051;-80
2023/06/14 14:52:57;;;;;;;6.53;3.70;;;26.50;45.50;;;;;;6259654;28;20049;-80
2023/06/14 14:55:59;;;;;;;8.75;3.80;;;26.60;45.80;;;;;;6247701;28;20423;-80
2023/06/14 14:59:02;;;;;;;7.82;3.85;;;26.60;45.70;;;;;;6247780;28;20052;-81
2023/06/14 15:02:04;;;;;;;;;;;26.50;45.50;;;;;;6253460;28;20045;-80
2023/06/14 15:05:07;;;;;;;4.80;3.28;;;26.70;45.60;;;;;;6261157;28;19929;-80
2023/06/14 15:08:11;;;;;;;6.57;3.70;;;26.80;45.40;;;;;;6247622;28;20049;-80
2023/06/14 15:11:13;;;;;;;7.00;3.60;;;26.70;45.10;;;;;;6262313;28;20110;-81
2023/06/14 15:14:15;;;;;;;5.43;3.28;;;26.40;45.00;;;;;;6272180;28;20075;-79
2023/06/14 15:17:17;;;;;;;5.82;3.47;;;26.50;45.80;;;;;;6258196;28;20099;-81
2023/06/14 15:20:19;;;;;;;6.05;3.83;;;26.60;45.30;;;;;;6247366;28;20049;-80
2023/06/14 15:23:22;;;;;;;7.20;3.60;;;26.60;45.00;;;;;;6265136;28;20055;-80
2023/06/14 15:26:24;;;;;;;6.20;3.65;;;26.80;45.10;;;;;;6251309;28;20049;-79
2023/06/14 15:29:26;;;;;;;6.38;3.50;;;26.60;44.00;;;;;;6219924;28;20093;-81
2023/06/14 15:32:28;;;;;;;5.78;3.60;;;26.50;44.70;;;;;;6235712;28;20048;-79
2023/06/14 15:35:30;;;;;;;6.30;3.40;;;26.50;44.90;;;;;;6268864;28;20113;-82
2023/06/14 15:38:33;;;;;;;9.63;3.88;;;26.60;45.60;;;;;;6269563;28;20064;-81
2023/06/14 15:41:35;;;;;;;5.80;3.50;;;26.40;45.50;;;;;;6263044;28;20059;-80
2023/06/14 15:44:37;;;;;;;8.63;3.75;;;26.60;45.60;;;;;;6266383;28;20057;-80
2023/06/14 15:47:39;;;;;;;6.28;3.45;;;26.90;46.00;;;;;;6254099;28;20048;-79
2023/06/14 15:50:41;;;;;;;5.40;3.70;;;27.20;45.60;;;;;;6258444;28;20514;-81
2023/06/14 15:53:44;;;;;;;6.20;3.63;;;27.40;45.60;;;;;;6264147;28;20056;-80
2023/06/14 15:56:45;;;;;;;6.95;3.45;;;27.70;45.40;;;;;;6263424;28;20488;-81